sensor_id;sensor_type;location;lat;lon;timestamp;P1;durP1;ratioP1;P2;durP2;ratioP2
20772;SDS011;10546;50.674;4.616;2023-10-13T06:05:06;24.77;;;8.82;;
20772;SDS011;10546;50.674;4.616;2023-10-13T06:07:59;26.95;;;7.68;;
20772;SDS011;10546;50.674;4.616;2023-10-13T06:10:47;25.65;;;7.97;;
20772;SDS011;10546;50.674;4.616;2023-10-13T06:13:33;22.55;;;7.95;;
20772;SDS011;10546;50.674;4.616;2023-10-13T06:16:19;17.55;;;7.50;;
20772;SDS011;10546;50.674;4.616;2023-10-13T06:19:08;20.00;;;7.82;;
20772;SDS011;10546;50.674;4.616;2023-10-13T06:22:11;23.02;;;7.95;;
20772;SDS011;10546;50.674;4.616;2023-10-13T06:24:56;21.65;;;8.18;;
20772;SDS011;10546;50.674;4.616;2023-10-13T06:27:41;26.10;;;8.95;;
20772;SDS011;10546;50.674;4.616;2023-10-13T06:30:32;14.55;;;6.90;;
20772;SDS011;10546;50.674;4.616;2023-10-13T06:33:03;13.57;;;6.47;;
20772;SDS011;10546;50.674;4.616;2023-10-13T06:35:49;26.95;;;8.23;;
20772;SDS011;10546;50.674;4.616;2023-10-13T06:38:27;28.25;;;8.43;;
20772;SDS011;10546;50.674;4.616;2023-10-13T06:41:01;16.23;;;6.85;;
20772;SDS011;10546;50.674;4.616;2023-10-13T06:43:30;20.95;;;7.47;;
20772;SDS011;10546;50.674;4.616;2023-10-13T06:49:29;20.60;;;6.68;;
20772;SDS011;10546;50.674;4.616;2023-10-13T06:52:50;15.25;;;7.00;;
20772;SDS011;10546;50.674;4.616;2023-10-13T06:55:38;22.33;;;7.25;;
20772;SDS011;10546;50.674;4.616;2023-10-13T06:58:28;19.13;;;6.53;;
20772;SDS011;10546;50.674;4.616;2023-10-13T07:00:54;17.80;;;6.20;;
20772;SDS011;10546;50.674;4.616;2023-10-13T07:03:24;18.38;;;6.40;;
20772;SDS011;10546;50.674;4.616;2023-10-13T07:05:50;16.55;;;6.03;;
20772;SDS011;10546;50.674;4.616;2023-10-13T07:08:24;19.42;;;6.30;;
20772;SDS011;10546;50.674;4.616;2023-10-13T07:11:05;14.20;;;6.55;;
20772;SDS011;10546;50.674;4.616;2023-10-13T07:13:45;13.70;;;6.47;;
20772;SDS011;10546;50.674;4.616;2023-10-13T07:16:18;20.52;;;6.28;;
20772;SDS011;10546;50.674;4.616;2023-10-13T07:18:45;20.67;;;5.43;;
20772;SDS011;10546;50.674;4.616;2023-10-13T07:21:32;17.70;;;6.35;;
20772;SDS011;10546;50.674;4.616;2023-10-13T07:23:59;16.45;;;5.80;;
20772;SDS011;10546;50.674;4.616;2023-10-13T07:26:36;16.70;;;5.20;;
20772;SDS011;10546;50.674;4.616;2023-10-13T07:29:12;21.85;;;5.93;;
20772;SDS011;10546;50.674;4.616;2023-10-13T07:31:40;19.95;;;5.70;;
20772;SDS011;10546;50.674;4.616;2023-10-13T07:34:09;17.77;;;6.05;;
20772;SDS011;10546;50.674;4.616;2023-10-13T07:36:55;19.27;;;6.50;;
20772;SDS011;10546;50.674;4.616;2023-10-13T07:39:25;16.92;;;5.47;;
20772;SDS011;10546;50.674;4.616;2023-10-13T07:41:54;15.80;;;5.75;;
20772;SDS011;10546;50.674;4.616;2023-10-13T07:44:23;14.88;;;5.93;;
20772;SDS011;10546;50.674;4.616;2023-10-13T07:46:57;19.48;;;5.65;;
20772;SDS011;10546;50.674;4.616;2023-10-13T07:49:35;18.58;;;6.22;;
20772;SDS011;10546;50.674;4.616;2023-10-13T07:52:06;21.45;;;7.00;;
20772;SDS011;10546;50.674;4.616;2023-10-13T07:54:47;15.65;;;5.70;;
20772;SDS011;10546;50.674;4.616;2023-10-13T07:57:21;16.15;;;4.95;;
20772;SDS011;10546;50.674;4.616;2023-10-13T07:59:57;17.15;;;6.07;;
20772;SDS011;10546;50.674;4.616;2023-10-13T08:02:37;16.67;;;5.78;;
20772;SDS011;10546;50.674;4.616;2023-10-13T08:05:16;17.48;;;6.07;;
20772;SDS011;10546;50.674;4.616;2023-10-13T08:08:01;11.27;;;6.40;;
20772;SDS011;10546;50.674;4.616;2023-10-13T08:10:35;19.30;;;6.70;;
20772;SDS011;10546;50.674;4.616;2023-10-13T08:13:25;14.40;;;6.65;;
20772;SDS011;10546;50.674;4.616;2023-10-13T08:15:51;18.58;;;6.05;;
20772;SDS011;10546;50.674;4.616;2023-10-13T08:18:25;18.23;;;6.00;;
20772;SDS011;10546;50.674;4.616;2023-10-13T08:21:11;17.15;;;7.50;;
20772;SDS011;10546;50.674;4.616;2023-10-13T08:23:41;16.67;;;6.50;;
20772;SDS011;10546;50.674;4.616;2023-10-13T08:26:21;13.35;;;6.95;;
20772;SDS011;10546;50.674;4.616;2023-10-13T08:29:04;21.95;;;8.18;;
20772;SDS011;10546;50.674;4.616;2023-10-13T08:31:49;16.10;;;6.55;;
20772;SDS011;10546;50.674;4.616;2023-10-13T08:34:35;15.40;;;6.68;;
20772;SDS011;10546;50.674;4.616;2023-10-13T08:37:10;19.75;;;6.75;;
20772;SDS011;10546;50.674;4.616;2023-10-13T08:39:56;16.00;;;6.93;;
20772;SDS011;10546;50.674;4.616;2023-10-13T08:42:30;17.38;;;8.10;;
20772;SDS011;10546;50.674;4.616;2023-10-13T08:45:10;15.93;;;6.78;;
20772;SDS011;10546;50.674;4.616;2023-10-13T08:47:54;18.98;;;7.53;;
20772;SDS011;10546;50.674;4.616;2023-10-13T08:50:52;19.98;;;8.10;;
20772;SDS011;10546;50.674;4.616;2023-10-13T08:53:29;17.08;;;7.63;;
20772;SDS011;10546;50.674;4.616;2023-10-13T08:56:05;15.45;;;6.47;;
20772;SDS011;10546;50.674;4.616;2023-10-13T08:58:43;20.23;;;6.68;;
20772;SDS011;10546;50.674;4.616;2023-10-13T09:01:35;14.88;;;6.72;;
20772;SDS011;10546;50.674;4.616;2023-10-13T09:04:37;13.57;;;6.47;;
20772;SDS011;10546;50.674;4.616;2023-10-13T09:07:06;20.20;;;7.20;;
20772;SDS011;10546;50.674;4.616;2023-10-13T09:15:30;16.23;;;7.70;;
20772;SDS011;10546;50.674;4.616;2023-10-13T09:18:23;16.77;;;7.38;;
20772;SDS011;10546;50.674;4.616;2023-10-13T09:21:15;18.00;;;7.65;;
20772;SDS011;10546;50.674;4.616;2023-10-13T09:24:08;14.85;;;6.90;;
20772;SDS011;10546;50.674;4.616;2023-10-13T09:27:15;17.55;;;7.05;;
20772;SDS011;10546;50.674;4.616;2023-10-13T09:33:19;17.02;;;7.18;;
20772;SDS011;10546;50.674;4.616;2023-10-13T09:42:23;17.95;;;6.65;;
20772;SDS011;10546;50.674;4.616;2023-10-13T09:44:54;19.05;;;7.20;;
20772;SDS011;10546;50.674;4.616;2023-10-13T09:47:32;17.13;;;7.28;;
20772;SDS011;10546;50.674;4.616;2023-10-13T09:50:07;23.27;;;7.78;;
20772;SDS011;10546;50.674;4.616;2023-10-13T09:52:50;19.90;;;7.70;;
20772;SDS011;10546;50.674;4.616;2023-10-13T09:55:35;17.85;;;7.15;;
20772;SDS011;10546;50.674;4.616;2023-10-13T09:58:07;19.10;;;6.80;;
20772;SDS011;10546;50.674;4.616;2023-10-13T10:00:40;15.48;;;7.05;;
20772;SDS011;10546;50.674;4.616;2023-10-13T10:03:11;13.68;;;6.90;;
20772;SDS011;10546;50.674;4.616;2023-10-13T10:06:05;17.63;;;7.35;;
20772;SDS011;10546;50.674;4.616;2023-10-13T10:08:44;22.17;;;7.22;;
20772;SDS011;10546;50.674;4.616;2023-10-13T10:17:05;23.08;;;6.35;;
20772;SDS011;10546;50.674;4.616;2023-10-13T10:19:48;21.15;;;6.05;;
20772;SDS011;10546;50.674;4.616;2023-10-13T10:22:25;19.60;;;6.57;;
20772;SDS011;10546;50.674;4.616;2023-10-13T10:25:09;17.10;;;6.10;;
20772;SDS011;10546;50.674;4.616;2023-10-13T10:27:56;16.15;;;5.65;;
20772;SDS011;10546;50.674;4.616;2023-10-13T10:30:27;22.77;;;5.93;;
20772;SDS011;10546;50.674;4.616;2023-10-13T10:33:14;17.83;;;6.20;;
20772;SDS011;10546;50.674;4.616;2023-10-13T10:35:40;24.33;;;6.95;;
20772;SDS011;10546;50.674;4.616;2023-10-13T10:40:50;19.45;;;6.50;;
20772;SDS011;10546;50.674;4.616;2023-10-13T10:43:39;18.05;;;6.13;;
20772;SDS011;10546;50.674;4.616;2023-10-13T10:46:10;22.70;;;6.60;;
20772;SDS011;10546;50.674;4.616;2023-10-13T10:49:05;20.75;;;6.40;;
20772;SDS011;10546;50.674;4.616;2023-10-13T10:51:33;14.40;;;4.88;;
20772;SDS011;10546;50.674;4.616;2023-10-13T10:54:17;19.17;;;6.25;;
20772;SDS011;10546;50.674;4.616;2023-10-13T10:56:43;23.77;;;6.30;;
20772;SDS011;10546;50.674;4.616;2023-10-13T10:59:17;18.92;;;6.57;;
20772;SDS011;10546;50.674;4.616;2023-10-13T11:01:44;14.60;;;5.50;;
20772;SDS011;10546;50.674;4.616;2023-10-13T11:04:16;24.17;;;6.18;;
20772;SDS011;10546;50.674;4.616;2023-10-13T11:06:51;16.98;;;6.28;;
20772;SDS011;10546;50.674;4.616;2023-10-13T11:09:38;24.98;;;6.43;;
20772;SDS011;10546;50.674;4.616;2023-10-13T11:15:06;19.45;;;6.45;;
20772;SDS011;10546;50.674;4.616;2023-10-13T11:17:49;22.40;;;6.82;;
20772;SDS011;10546;50.674;4.616;2023-10-13T11:20:23;17.42;;;6.18;;
20772;SDS011;10546;50.674;4.616;2023-10-13T11:22:59;23.98;;;7.03;;
20772;SDS011;10546;50.674;4.616;2023-10-13T11:25:35;22.05;;;6.65;;
20772;SDS011;10546;50.674;4.616;2023-10-13T11:28:26;24.60;;;6.80;;
20772;SDS011;10546;50.674;4.616;2023-10-13T11:33:28;22.30;;;6.93;;
20772;SDS011;10546;50.674;4.616;2023-10-13T11:36:12;17.77;;;6.53;;
20772;SDS011;10546;50.674;4.616;2023-10-13T11:39:12;18.77;;;6.50;;
20772;SDS011;10546;50.674;4.616;2023-10-13T11:41:50;20.15;;;6.30;;
20772;SDS011;10546;50.674;4.616;2023-10-13T11:44:42;16.13;;;6.70;;
20772;SDS011;10546;50.674;4.616;2023-10-13T11:47:09;15.25;;;6.38;;
20772;SDS011;10546;50.674;4.616;2023-10-13T11:50:16;17.25;;;6.60;;
20772;SDS011;10546;50.674;4.616;2023-10-13T11:52:59;18.20;;;5.90;;
20772;SDS011;10546;50.674;4.616;2023-10-13T11:55:47;20.80;;;6.70;;
20772;SDS011;10546;50.674;4.616;2023-10-13T11:58:15;18.70;;;6.18;;
20772;SDS011;10546;50.674;4.616;2023-10-13T12:00:50;21.63;;;6.40;;
20772;SDS011;10546;50.674;4.616;2023-10-13T12:03:52;17.25;;;6.75;;
20772;SDS011;10546;50.674;4.616;2023-10-13T12:06:56;16.73;;;6.07;;
20772;SDS011;10546;50.674;4.616;2023-10-13T12:10:00;28.88;;;6.72;;
20772;SDS011;10546;50.674;4.616;2023-10-13T12:16:45;15.88;;;5.13;;
20772;SDS011;10546;50.674;4.616;2023-10-13T12:19:57;16.20;;;5.78;;
20772;SDS011;10546;50.674;4.616;2023-10-13T12:23:36;17.85;;;6.10;;
20772;SDS011;10546;50.674;4.616;2023-10-13T12:26:26;17.15;;;5.95;;
20772;SDS011;10546;50.674;4.616;2023-10-13T12:29:36;19.98;;;5.78;;
20772;SDS011;10546;50.674;4.616;2023-10-13T12:49:34;12.43;;;5.78;;
20772;SDS011;10546;50.674;4.616;2023-10-13T12:56:29;17.55;;;5.65;;
20772;SDS011;10546;50.674;4.616;2023-10-13T12:59:47;17.52;;;5.80;;
20772;SDS011;10546;50.674;4.616;2023-10-13T13:02:25;17.58;;;6.40;;
20772;SDS011;10546;50.674;4.616;2023-10-13T13:05:21;11.75;;;5.55;;
20772;SDS011;10546;50.674;4.616;2023-10-13T13:08:00;24.95;;;6.03;;
20772;SDS011;10546;50.674;4.616;2023-10-13T13:13:36;12.43;;;5.85;;
20772;SDS011;10546;50.674;4.616;2023-10-13T13:16:22;12.57;;;5.60;;
20772;SDS011;10546;50.674;4.616;2023-10-13T13:19:03;25.10;;;6.13;;
20772;SDS011;10546;50.674;4.616;2023-10-13T13:21:35;16.95;;;6.00;;
20772;SDS011;10546;50.674;4.616;2023-10-13T13:24:16;15.25;;;5.85;;
20772;SDS011;10546;50.674;4.616;2023-10-13T13:26:42;16.20;;;5.93;;
20772;SDS011;10546;50.674;4.616;2023-10-13T13:29:28;12.05;;;5.60;;
20772;SDS011;10546;50.674;4.616;2023-10-13T13:32:04;14.52;;;6.15;;
20772;SDS011;10546;50.674;4.616;2023-10-13T13:34:31;21.50;;;5.85;;
20772;SDS011;10546;50.674;4.616;2023-10-13T13:37:43;17.75;;;5.82;;
20772;SDS011;10546;50.674;4.616;2023-10-13T13:41:12;17.02;;;6.18;;
20772;SDS011;10546;50.674;4.616;2023-10-13T13:43:58;16.88;;;6.05;;
20772;SDS011;10546;50.674;4.616;2023-10-13T13:46:40;15.80;;;5.70;;
20772;SDS011;10546;50.674;4.616;2023-10-13T13:49:58;18.08;;;6.65;;
20772;SDS011;10546;50.674;4.616;2023-10-13T13:52:59;17.80;;;5.88;;
20772;SDS011;10546;50.674;4.616;2023-10-13T13:56:04;17.30;;;5.63;;
20772;SDS011;10546;50.674;4.616;2023-10-13T13:58:35;9.80;;;5.00;;
20772;SDS011;10546;50.674;4.616;2023-10-13T14:01:04;12.40;;;6.38;;
20772;SDS011;10546;50.674;4.616;2023-10-13T14:03:37;18.05;;;5.70;;
20772;SDS011;10546;50.674;4.616;2023-10-13T14:06:12;16.10;;;5.88;;
20772;SDS011;10546;50.674;4.616;2023-10-13T14:08:51;21.30;;;6.78;;
20772;SDS011;10546;50.674;4.616;2023-10-13T14:12:04;16.85;;;5.30;;
20772;SDS011;10546;50.674;4.616;2023-10-13T14:15:24;16.77;;;6.07;;
20772;SDS011;10546;50.674;4.616;2023-10-13T14:17:49;23.02;;;6.13;;
20772;SDS011;10546;50.674;4.616;2023-10-13T14:20:19;13.80;;;5.53;;
20772;SDS011;10546;50.674;4.616;2023-10-13T14:22:45;14.23;;;5.78;;
20772;SDS011;10546;50.674;4.616;2023-10-13T14:25:16;17.17;;;5.78;;
20772;SDS011;10546;50.674;4.616;2023-10-13T14:27:49;14.57;;;6.20;;
20772;SDS011;10546;50.674;4.616;2023-10-13T14:30:18;12.48;;;5.45;;
20772;SDS011;10546;50.674;4.616;2023-10-13T14:32:45;13.40;;;6.03;;
20772;SDS011;10546;50.674;4.616;2023-10-13T14:35:11;17.08;;;5.47;;
20772;SDS011;10546;50.674;4.616;2023-10-13T14:37:44;13.88;;;5.80;;
20772;SDS011;10546;50.674;4.616;2023-10-13T14:40:20;14.43;;;5.75;;
20772;SDS011;10546;50.674;4.616;2023-10-13T14:43:09;17.45;;;5.75;;
20772;SDS011;10546;50.674;4.616;2023-10-13T14:45:35;13.23;;;6.75;;
20772;SDS011;10546;50.674;4.616;2023-10-13T14:48:09;13.85;;;5.90;;
20772;SDS011;10546;50.674;4.616;2023-10-13T14:50:39;17.30;;;5.88;;
20772;SDS011;10546;50.674;4.616;2023-10-13T14:53:08;11.80;;;5.65;;
20772;SDS011;10546;50.674;4.616;2023-10-13T14:55:34;14.88;;;5.97;;
20772;SDS011;10546;50.674;4.616;2023-10-13T14:58:06;19.35;;;6.53;;
20772;SDS011;10546;50.674;4.616;2023-10-13T15:07:31;14.88;;;6.53;;
20772;SDS011;10546;50.674;4.616;2023-10-13T15:10:36;17.40;;;6.40;;
20772;SDS011;10546;50.674;4.616;2023-10-13T15:19:35;13.50;;;6.03;;
20772;SDS011;10546;50.674;4.616;2023-10-13T15:22:24;14.45;;;6.22;;
20772;SDS011;10546;50.674;4.616;2023-10-13T15:25:00;17.08;;;6.95;;
20772;SDS011;10546;50.674;4.616;2023-10-13T15:31:19;14.68;;;6.22;;
20772;SDS011;10546;50.674;4.616;2023-10-13T15:34:11;14.57;;;6.63;;
20772;SDS011;10546;50.674;4.616;2023-10-13T15:37:00;12.57;;;6.38;;
20772;SDS011;10546;50.674;4.616;2023-10-13T15:42:22;12.50;;;6.75;;
20772;SDS011;10546;50.674;4.616;2023-10-13T15:44:49;13.75;;;6.32;;
20772;SDS011;10546;50.674;4.616;2023-10-13T15:51:20;20.35;;;7.95;;
20772;SDS011;10546;50.674;4.616;2023-10-13T15:56:57;14.05;;;5.88;;
20772;SDS011;10546;50.674;4.616;2023-10-13T15:59:44;19.58;;;6.95;;
20772;SDS011;10546;50.674;4.616;2023-10-13T16:02:35;18.85;;;6.90;;
20772;SDS011;10546;50.674;4.616;2023-10-13T16:08:40;19.83;;;6.00;;
20772;SDS011;10546;50.674;4.616;2023-10-13T16:19:40;19.52;;;6.80;;
20772;SDS011;10546;50.674;4.616;2023-10-13T16:22:09;16.95;;;6.95;;
20772;SDS011;10546;50.674;4.616;2023-10-13T16:24:36;17.88;;;6.80;;
20772;SDS011;10546;50.674;4.616;2023-10-13T16:27:03;18.67;;;6.82;;
20772;SDS011;10546;50.674;4.616;2023-10-13T16:29:30;13.70;;;6.20;;
20772;SDS011;10546;50.674;4.616;2023-10-13T16:32:08;11.60;;;6.05;;
20772;SDS011;10546;50.674;4.616;2023-10-13T16:34:54;12.00;;;6.45;;
20772;SDS011;10546;50.674;4.616;2023-10-13T16:37:59;18.50;;;7.18;;
20772;SDS011;10546;50.674;4.616;2023-10-13T16:40:31;17.02;;;6.88;;
20772;SDS011;10546;50.674;4.616;2023-10-13T16:43:00;17.20;;;6.50;;
20772;SDS011;10546;50.674;4.616;2023-10-13T16:45:55;12.80;;;6.75;;
20772;SDS011;10546;50.674;4.616;2023-10-13T16:48:22;13.07;;;6.10;;
20772;SDS011;10546;50.674;4.616;2023-10-13T16:50:53;16.95;;;6.93;;
20772;SDS011;10546;50.674;4.616;2023-10-13T16:56:00;12.85;;;6.72;;
20772;SDS011;10546;50.674;4.616;2023-10-13T16:58:49;19.60;;;6.93;;
20772;SDS011;10546;50.674;4.616;2023-10-13T17:01:16;13.30;;;6.15;;
20772;SDS011;10546;50.674;4.616;2023-10-13T17:03:46;20.67;;;7.50;;
20772;SDS011;10546;50.674;4.616;2023-10-13T17:06:34;14.10;;;6.25;;
20772;SDS011;10546;50.674;4.616;2023-10-13T17:09:17;19.50;;;7.20;;
20772;SDS011;10546;50.674;4.616;2023-10-13T17:11:52;15.73;;;6.22;;
20772;SDS011;10546;50.674;4.616;2023-10-13T17:14:46;15.52;;;6.55;;
20772;SDS011;10546;50.674;4.616;2023-10-13T17:17:15;12.02;;;6.35;;
20772;SDS011;10546;50.674;4.616;2023-10-13T17:19:47;13.25;;;5.97;;
20772;SDS011;10546;50.674;4.616;2023-10-13T17:22:15;15.15;;;6.32;;
20772;SDS011;10546;50.674;4.616;2023-10-13T17:24:53;18.50;;;7.68;;
20772;SDS011;10546;50.674;4.616;2023-10-13T17:27:29;18.10;;;6.53;;
20772;SDS011;10546;50.674;4.616;2023-10-13T17:29:58;14.90;;;7.40;;
20772;SDS011;10546;50.674;4.616;2023-10-13T17:32:27;16.05;;;7.35;;
20772;SDS011;10546;50.674;4.616;2023-10-13T17:34:53;13.95;;;7.35;;
20772;SDS011;10546;50.674;4.616;2023-10-13T17:37:19;16.60;;;7.80;;
20772;SDS011;10546;50.674;4.616;2023-10-13T17:39:45;23.95;;;8.70;;
20772;SDS011;10546;50.674;4.616;2023-10-13T17:42:11;16.73;;;8.15;;
20772;SDS011;10546;50.674;4.616;2023-10-13T17:44:38;17.58;;;7.13;;
20772;SDS011;10546;50.674;4.616;2023-10-13T17:47:04;16.58;;;6.88;;
20772;SDS011;10546;50.674;4.616;2023-10-13T17:49:35;13.57;;;6.57;;
20772;SDS011;10546;50.674;4.616;2023-10-13T17:52:10;20.20;;;7.90;;
20772;SDS011;10546;50.674;4.616;2023-10-13T17:54:39;17.00;;;7.40;;
20772;SDS011;10546;50.674;4.616;2023-10-13T17:57:19;19.55;;;8.70;;
20772;SDS011;10546;50.674;4.616;2023-10-13T17:59:44;24.48;;;10.00;;
20772;SDS011;10546;50.674;4.616;2023-10-13T18:02:14;18.95;;;6.55;;
20772;SDS011;10546;50.674;4.616;2023-10-13T18:04:49;14.82;;;6.82;;
20772;SDS011;10546;50.674;4.616;2023-10-13T18:07:19;19.63;;;7.20;;
20772;SDS011;10546;50.674;4.616;2023-10-13T18:09:51;13.02;;;7.07;;
20772;SDS011;10546;50.674;4.616;2023-10-13T18:12:17;20.48;;;9.35;;
20772;SDS011;10546;50.674;4.616;2023-10-13T18:15:21;20.48;;;6.50;;
20772;SDS011;10546;50.674;4.616;2023-10-13T18:17:49;17.55;;;8.05;;
20772;SDS011;10546;50.674;4.616;2023-10-13T18:20:18;14.57;;;6.63;;
20772;SDS011;10546;50.674;4.616;2023-10-13T18:22:48;16.58;;;6.28;;
20772;SDS011;10546;50.674;4.616;2023-10-13T18:25:26;20.27;;;8.13;;
20772;SDS011;10546;50.674;4.616;2023-10-13T18:35:42;21.75;;;7.50;;
20772;SDS011;10546;50.674;4.616;2023-10-13T18:38:10;21.50;;;6.78;;
20772;SDS011;10546;50.674;4.616;2023-10-13T18:40:36;20.25;;;7.00;;
20772;SDS011;10546;50.674;4.616;2023-10-13T18:43:02;18.58;;;7.75;;
20772;SDS011;10546;50.674;4.616;2023-10-13T18:45:42;23.40;;;8.55;;
20772;SDS011;10546;50.674;4.616;2023-10-13T18:51:23;24.17;;;9.90;;
20772;SDS011;10546;50.674;4.616;2023-10-13T18:54:12;23.58;;;9.07;;
20772;SDS011;10546;50.674;4.616;2023-10-13T18:56:42;24.95;;;10.57;;
20772;SDS011;10546;50.674;4.616;2023-10-13T18:59:32;21.77;;;9.85;;
20772;SDS011;10546;50.674;4.616;2023-10-13T19:02:17;22.20;;;10.13;;
20772;SDS011;10546;50.674;4.616;2023-10-13T19:04:47;21.58;;;9.73;;
20772;SDS011;10546;50.674;4.616;2023-10-13T19:10:00;22.77;;;10.20;;
20772;SDS011;10546;50.674;4.616;2023-10-13T19:12:55;17.40;;;9.77;;
20772;SDS011;10546;50.674;4.616;2023-10-13T19:15:26;27.77;;;9.50;;
20772;SDS011;10546;50.674;4.616;2023-10-13T19:17:52;20.23;;;10.50;;
20772;SDS011;10546;50.674;4.616;2023-10-13T19:20:23;20.05;;;9.32;;
20772;SDS011;10546;50.674;4.616;2023-10-13T19:22:49;27.83;;;9.60;;
20772;SDS011;10546;50.674;4.616;2023-10-13T19:25:19;25.23;;;9.75;;
20772;SDS011;10546;50.674;4.616;2023-10-13T19:27:49;25.30;;;10.38;;
20772;SDS011;10546;50.674;4.616;2023-10-13T19:30:14;24.63;;;9.75;;
20772;SDS011;10546;50.674;4.616;2023-10-13T19:32:46;23.40;;;9.02;;
20772;SDS011;10546;50.674;4.616;2023-10-13T19:35:15;17.60;;;9.57;;
20772;SDS011;10546;50.674;4.616;2023-10-13T19:37:46;25.50;;;9.05;;
20772;SDS011;10546;50.674;4.616;2023-10-13T19:40:42;20.60;;;9.55;;
20772;SDS011;10546;50.674;4.616;2023-10-13T19:43:33;23.80;;;8.73;;
20772;SDS011;10546;50.674;4.616;2023-10-13T19:46:03;24.15;;;9.10;;
20772;SDS011;10546;50.674;4.616;2023-10-13T19:48:30;26.92;;;9.00;;
20772;SDS011;10546;50.674;4.616;2023-10-13T19:51:07;17.42;;;8.13;;
20772;SDS011;10546;50.674;4.616;2023-10-13T19:53:38;15.82;;;8.25;;
20772;SDS011;10546;50.674;4.616;2023-10-13T19:56:14;23.02;;;9.18;;
20772;SDS011;10546;50.674;4.616;2023-10-13T19:58:48;21.67;;;8.38;;
20772;SDS011;10546;50.674;4.616;2023-10-13T20:01:49;25.88;;;8.77;;
20772;SDS011;10546;50.674;4.616;2023-10-13T20:04:35;19.58;;;8.43;;
20772;SDS011;10546;50.674;4.616;2023-10-13T20:10:28;24.88;;;8.30;;
20772;SDS011;10546;50.674;4.616;2023-10-13T20:13:03;19.65;;;7.40;;
20772;SDS011;10546;50.674;4.616;2023-10-13T20:15:33;19.85;;;8.23;;
20772;SDS011;10546;50.674;4.616;2023-10-13T20:18:07;18.85;;;7.72;;
20772;SDS011;10546;50.674;4.616;2023-10-13T20:20:36;23.73;;;9.07;;
20772;SDS011;10546;50.674;4.616;2023-10-13T20:23:30;19.17;;;7.88;;
20772;SDS011;10546;50.674;4.616;2023-10-13T20:26:02;24.58;;;7.90;;
20772;SDS011;10546;50.674;4.616;2023-10-13T20:29:15;21.20;;;7.82;;
20772;SDS011;10546;50.674;4.616;2023-10-13T20:31:47;15.82;;;7.35;;
20772;SDS011;10546;50.674;4.616;2023-10-13T20:35:23;19.55;;;7.30;;
20772;SDS011;10546;50.674;4.616;2023-10-13T20:37:58;25.70;;;8.18;;
20772;SDS011;10546;50.674;4.616;2023-10-13T20:40:30;23.63;;;7.10;;
20772;SDS011;10546;50.674;4.616;2023-10-13T20:43:34;12.75;;;6.10;;
20772;SDS011;10546;50.674;4.616;2023-10-13T20:46:09;23.05;;;8.23;;
20772;SDS011;10546;50.674;4.616;2023-10-13T20:48:37;23.55;;;7.85;;
20772;SDS011;10546;50.674;4.616;2023-10-13T20:51:03;13.90;;;7.35;;
20772;SDS011;10546;50.674;4.616;2023-10-13T20:53:31;24.50;;;7.50;;
20772;SDS011;10546;50.674;4.616;2023-10-13T20:56:19;22.13;;;7.75;;
20772;SDS011;10546;50.674;4.616;2023-10-13T21:01:42;19.95;;;8.35;;
20772;SDS011;10546;50.674;4.616;2023-10-13T21:04:09;16.63;;;7.72;;
20772;SDS011;10546;50.674;4.616;2023-10-13T21:06:35;24.17;;;8.48;;
20772;SDS011;10546;50.674;4.616;2023-10-13T21:11:45;27.77;;;9.27;;
20772;SDS011;10546;50.674;4.616;2023-10-13T21:16:47;18.50;;;7.88;;
20772;SDS011;10546;50.674;4.616;2023-10-13T21:19:16;18.40;;;8.65;;
20772;SDS011;10546;50.674;4.616;2023-10-13T21:44:59;19.10;;;7.72;;
20772;SDS011;10546;50.674;4.616;2023-10-13T21:47:56;20.48;;;9.82;;
20772;SDS011;10546;50.674;4.616;2023-10-13T21:50:24;18.55;;;8.63;;
20772;SDS011;10546;50.674;4.616;2023-10-13T21:52:51;19.75;;;8.55;;
20772;SDS011;10546;50.674;4.616;2023-10-13T21:55:27;16.15;;;6.80;;
20772;SDS011;10546;50.674;4.616;2023-10-13T21:57:58;15.02;;;6.80;;
